Time;durP1;ratioP1;P1;durP2;ratioP2;P2;SDS_P1;SDS_P2;PMS_P1;PMS_P2;Temp;Humidity;BMP_temperature;BMP_pressure;BME280_temperature;BME280_humidity;BME280_pressure;Samples;Min_cycle;Max_cycle;Signal;HPM_P1;HPM_P2
2024/04/03 00:01:54;;;;;;;10.17;7.47;;;8.60;99.90;;;;;;5092070;28;20193;-61
2024/04/03 00:04:21;;;;;;;8.53;7.63;;;8.60;99.90;;;;;;5054349;28;20895;-62
2024/04/03 00:06:48;;;;;;;12.00;8.10;;;8.50;99.90;;;;;;5087656;28;20209;-61
2024/04/03 00:09:16;;;;;;;13.23;7.53;;;8.50;99.90;;;;;;5087967;28;20186;-59
2024/04/03 00:11:42;;;;;;;10.33;7.13;;;8.50;99.90;;;;;;5077052;28;20202;-60
2024/04/03 00:14:09;;;;;;;9.77;6.90;;;8.40;99.90;;;;;;5069813;28;20206;-61
2024/04/03 00:16:35;;;;;;;11.67;6.77;;;8.30;99.90;;;;;;5082192;28;20259;-61
2024/04/03 00:19:02;;;;;;;10.33;6.40;;;8.30;99.90;;;;;;5053746;28;20206;-61
2024/04/03 00:21:27;;;;;;;10.47;6.73;;;8.30;99.90;;;;;;5070553;28;20638;-60
2024/04/03 00:23:55;;;;;;;9.90;7.47;;;8.30;99.90;;;;;;5086381;28;20182;-59
2024/04/03 00:26:22;;;;;;;11.73;6.53;;;8.30;99.90;;;;;;5087372;28;20202;-61
2024/04/03 00:28:51;;;;;;;8.77;6.60;;;8.30;99.90;;;;;;5074872;28;20193;-60
2024/04/03 00:31:16;;;;;;;8.67;6.73;;;8.30;99.90;;;;;;5085792;28;20204;-61
2024/04/03 00:33:46;;;;;;;8.57;6.33;;;8.30;99.90;;;;;;5057263;28;20190;-61
2024/04/03 00:36:12;;;;;;;10.67;6.23;;;8.30;99.90;;;;;;5080407;28;20198;-60
2024/04/03 00:38:39;;;;;;;8.97;6.67;;;8.20;99.90;;;;;;5082183;28;20299;-60
2024/04/03 00:41:05;;;;;;;7.93;6.40;;;8.20;99.90;;;;;;5084817;28;20648;-58
2024/04/03 00:43:33;;;;;;;11.43;7.40;;;8.20;99.90;;;;;;5059260;28;20205;-60
2024/04/03 00:46:02;;;;;;;9.27;6.17;;;8.10;99.90;;;;;;5092739;28;20293;-60
2024/04/03 00:48:31;;;;;;;9.40;5.87;;;8.20;99.90;;;;;;5086401;28;20210;-59
2024/04/03 00:51:00;;;;;;;7.93;5.63;;;8.20;99.90;;;;;;5056371;28;20717;-60
2024/04/03 00:53:27;;;;;;;7.37;5.57;;;8.20;99.90;;;;;;5090981;28;20200;-61
2024/04/03 00:55:53;;;;;;;7.30;4.40;;;8.00;99.90;;;;;;5085641;28;20462;-60
2024/04/03 00:58:20;;;;;;;5.93;4.47;;;8.00;99.90;;;;;;5089286;28;20217;-60
2024/04/03 01:00:48;;;;;;;6.83;4.60;;;8.00;99.90;;;;;;5079034;28;20194;-59
2024/04/03 01:03:14;;;;;;;7.90;4.70;;;7.90;99.90;;;;;;5087761;28;20281;-59
2024/04/03 01:05:40;;;;;;;6.63;4.47;;;7.80;99.90;;;;;;5055061;28;20557;-62
2024/04/03 01:08:07;;;;;;;5.40;4.37;;;7.80;99.90;;;;;;5087601;28;20279;-57
2024/04/03 01:10:33;;;;;;;5.03;3.93;;;7.70;99.90;;;;;;5090371;28;20737;-60
2024/04/03 01:13:01;;;;;;;6.77;3.93;;;7.70;99.90;;;;;;5092687;28;20269;-60
2024/04/03 01:15:28;;;;;;;4.70;4.23;;;7.70;99.90;;;;;;5063568;28;20244;-59
2024/04/03 01:17:56;;;;;;;7.67;4.53;;;7.70;99.90;;;;;;5090850;28;20439;-60
2024/04/03 01:20:24;;;;;;;4.70;3.73;;;7.70;99.90;;;;;;5092622;28;20554;-60
2024/04/03 01:22:51;;;;;;;5.00;3.70;;;7.60;99.90;;;;;;5055156;28;20194;-60
2024/04/03 01:25:18;;;;;;;4.27;3.70;;;7.50;99.90;;;;;;5094441;28;20193;-61
2024/04/03 01:27:45;;;;;;;4.90;3.63;;;7.40;99.90;;;;;;5089761;28;20688;-61
2024/04/03 01:30:11;;;;;;;5.07;3.93;;;7.40;99.90;;;;;;5085604;28;20630;-61
2024/04/03 01:32:38;;;;;;;5.30;3.73;;;7.40;99.90;;;;;;5088674;28;20190;-61
2024/04/03 01:35:05;;;;;;;8.53;3.80;;;7.40;99.90;;;;;;5092643;28;20301;-59
2024/04/03 01:37:32;;;;;;;4.27;3.87;;;7.30;99.90;;;;;;5035131;28;20228;-60
2024/04/03 01:39:58;;;;;;;3.83;3.50;;;7.40;99.90;;;;;;5078893;28;20194;-67
2024/04/03 01:42:27;;;;;;;6.00;3.93;;;7.40;99.90;;;;;;5087714;28;20784;-60
2024/04/03 01:44:53;;;;;;;3.53;3.17;;;7.30;99.90;;;;;;5076474;28;20219;-58
2024/04/03 01:47:20;;;;;;;5.33;3.60;;;7.30;99.90;;;;;;5073116;28;20212;-58
2024/04/03 01:49:46;;;;;;;4.40;3.60;;;7.20;99.90;;;;;;5085298;28;20205;-59
2024/04/03 01:52:13;;;;;;;4.63;3.40;;;7.30;99.90;;;;;;5061042;28;20190;-62
2024/04/03 01:54:39;;;;;;;3.77;3.47;;;7.30;99.90;;;;;;5076861;28;20583;-61
2024/04/03 01:57:06;;;;;;;6.03;3.70;;;7.30;99.90;;;;;;5085690;28;20308;-58
2024/04/03 01:59:33;;;;;;;5.27;3.27;;;7.30;99.90;;;;;;5073882;28;20213;-60
2024/04/03 02:02:00;;;;;;;4.27;3.23;;;7.30;99.90;;;;;;5077349;28;20366;-60
2024/04/03 02:04:26;;;;;;;5.57;2.93;;;7.20;99.90;;;;;;5080563;28;20964;-60
2024/04/03 02:06:53;;;;;;;4.70;3.30;;;7.10;99.90;;;;;;5083859;28;20221;-58
2024/04/03 02:09:19;;;;;;;3.23;2.70;;;7.10;99.90;;;;;;5054059;28;20216;-58
2024/04/03 02:11:46;;;;;;;4.47;3.20;;;7.10;99.90;;;;;;5087009;28;20201;-60
2024/04/03 02:14:12;;;;;;;4.57;2.87;;;7.10;99.90;;;;;;5086286;28;20201;-60
2024/04/03 02:16:44;;;;;;;2.90;2.67;;;7.00;99.90;;;;;;5061246;28;20232;-58
2024/04/03 02:19:10;;;;;;;3.23;2.67;;;7.00;99.90;;;;;;5083697;28;20197;-60
2024/04/03 02:21:36;;;;;;;2.70;2.50;;;7.00;99.90;;;;;;5083864;28;20174;-58
2024/04/03 02:24:03;;;;;;;4.33;3.33;;;7.00;99.90;;;;;;5050999;28;20207;-60
2024/04/03 02:26:29;;;;;;;3.20;2.90;;;6.90;99.90;;;;;;5082778;28;20181;-57
2024/04/03 02:28:55;;;;;;;4.07;3.67;;;6.80;99.90;;;;;;5092439;28;20587;-59
2024/04/03 02:31:23;;;;;;;3.43;3.13;;;6.70;99.90;;;;;;5075153;28;20193;-60
2024/04/03 02:33:50;;;;;;;4.07;3.50;;;6.60;99.90;;;;;;5077860;28;20546;-59
2024/04/03 02:36:17;;;;;;;3.73;3.43;;;6.60;99.90;;;;;;5085505;28;20944;-59
2024/04/03 02:38:43;;;;;;;3.67;3.37;;;6.50;99.90;;;;;;5053053;28;20230;-59
2024/04/03 02:41:10;;;;;;;4.27;3.83;;;6.50;99.90;;;;;;5082246;28;20206;-60
2024/04/03 02:43:36;;;;;;;4.57;4.13;;;6.50;99.90;;;;;;5083166;28;20201;-60
2024/04/03 02:46:03;;;;;;;4.00;3.60;;;6.50;99.90;;;;;;5085581;28;20205;-60
2024/04/03 02:48:29;;;;;;;4.00;3.70;;;6.50;99.90;;;;;;5070652;28;20225;-60
2024/04/03 02:51:04;;;;;;;4.00;3.20;;;6.40;99.90;;;;;;5087454;28;20198;-59
2024/04/03 02:53:30;;;;;;;3.50;3.00;;;6.40;99.90;;;;;;5085199;28;20923;-58
2024/04/03 02:56:00;;;;;;;3.33;3.03;;;6.40;99.90;;;;;;5058400;28;20281;-59
2024/04/03 02:58:26;;;;;;;3.57;3.27;;;6.40;99.90;;;;;;5080965;28;20988;-59
2024/04/03 03:00:59;;;;;;;3.50;3.20;;;6.30;99.90;;;;;;5082028;28;20186;-59
2024/04/03 03:03:26;;;;;;;3.53;3.27;;;6.30;99.90;;;;;;5062387;28;20270;-58
2024/04/03 03:05:53;;;;;;;3.33;3.03;;;6.20;99.90;;;;;;5076715;28;20198;-60
2024/04/03 03:08:21;;;;;;;3.73;3.37;;;6.20;99.90;;;;;;5071512;28;20810;-59
2024/04/03 03:10:47;;;;;;;5.37;3.20;;;6.20;99.90;;;;;;5052950;28;20210;-58
2024/04/03 03:13:13;;;;;;;2.73;2.53;;;6.30;99.90;;;;;;5080661;28;20243;-60
2024/04/03 03:15:40;;;;;;;3.10;2.90;;;6.20;99.90;;;;;;5080516;28;20598;-59
2024/04/03 03:18:06;;;;;;;3.00;2.80;;;6.20;99.90;;;;;;5070512;28;20233;-61
2024/04/03 03:20:33;;;;;;;2.80;2.60;;;6.10;99.90;;;;;;5071747;28;20202;-62
2024/04/03 03:22:59;;;;;;;2.07;1.90;;;6.10;99.90;;;;;;5076525;28;20202;-61
2024/04/03 03:25:27;;;;;;;3.00;2.80;;;6.00;99.90;;;;;;5083975;28;20806;-58
2024/04/03 03:27:52;;;;;;;2.53;2.33;;;5.90;99.90;;;;;;5050382;28;20260;-59
2024/04/03 03:30:19;;;;;;;2.90;2.13;;;5.90;99.90;;;;;;5082060;28;20826;-60
2024/04/03 03:32:45;;;;;;;3.03;2.77;;;5.90;99.90;;;;;;5087505;28;20214;-59
2024/04/03 03:35:12;;;;;;;2.23;2.03;;;5.90;99.90;;;;;;5069143;28;20189;-60
2024/04/03 03:37:39;;;;;;;2.10;2.00;;;5.90;99.90;;;;;;5079141;28;20735;-59
2024/04/03 03:40:06;;;;;;;2.50;2.30;;;5.80;99.90;;;;;;5079539;28;20197;-59
2024/04/03 03:42:34;;;;;;;2.03;1.83;;;5.70;99.90;;;;;;5055449;28;20212;-59
2024/04/03 03:45:00;;;;;;;2.10;1.90;;;5.70;99.90;;;;;;5078691;28;20240;-61
2024/04/03 03:47:27;;;;;;;1.70;1.60;;;5.70;99.90;;;;;;5076814;28;20212;-58
2024/04/03 03:52:40;;;;;;;2.10;2.00;;;5.60;99.90;;;;;;5074934;28;20238;-59
2024/04/03 03:55:07;;;;;;;2.70;2.03;;;5.60;99.90;;;;;;5078750;28;20289;-60
2024/04/03 03:57:35;;;;;;;2.10;2.00;;;5.60;99.90;;;;;;5050982;28;22474;-57
2024/04/03 04:00:03;;;;;;;3.00;1.73;;;5.50;99.90;;;;;;5081793;28;20206;-58
2024/04/03 04:02:31;;;;;;;1.83;1.73;;;5.50;99.90;;;;;;5077578;28;20193;-60
2024/04/03 04:04:58;;;;;;;2.10;1.90;;;5.50;99.90;;;;;;5074351;28;20202;-61
2024/04/03 04:07:24;;;;;;;2.73;2.53;;;5.50;99.90;;;;;;5062033;28;20237;-60
2024/04/03 04:09:52;;;;;;;2.60;2.40;;;5.50;99.90;;;;;;5083551;28;20660;-59
2024/04/03 04:12:19;;;;;;;2.23;2.07;;;5.40;99.90;;;;;;5041876;28;20368;-60
2024/04/03 04:14:51;;;;;;;2.67;2.47;;;5.40;99.90;;;;;;5080689;28;20209;-59
2024/04/03 04:17:18;;;;;;;3.10;2.80;;;5.40;99.90;;;;;;5070676;28;20240;-60
2024/04/03 04:19:45;;;;;;;2.33;2.13;;;5.40;99.90;;;;;;5077432;28;20264;-60
2024/04/03 04:22:12;;;;;;;5.37;2.80;;;5.30;99.90;;;;;;5067308;28;20281;-61
2024/04/03 04:24:39;;;;;;;2.80;2.60;;;5.30;99.90;;;;;;5052097;28;20574;-60
2024/04/03 04:27:07;;;;;;;3.13;2.83;;;5.30;99.90;;;;;;5057620;28;22537;-61
2024/04/03 04:29:35;;;;;;;3.23;2.40;;;5.30;99.90;;;;;;5048622;28;20279;-60
2024/04/03 04:32:04;;;;;;;3.40;3.07;;;5.30;99.90;;;;;;5073027;28;20194;-61
2024/04/03 04:34:30;;;;;;;3.13;2.87;;;5.30;99.90;;;;;;5084926;28;20252;-62
2024/04/03 04:36:57;;;;;;;2.90;2.67;;;5.30;99.90;;;;;;5076329;28;20217;-62
2024/04/03 04:39:23;;;;;;;2.80;2.60;;;5.40;99.90;;;;;;5072000;28;20206;-59
2024/04/03 04:41:50;;;;;;;3.30;3.00;;;5.40;99.90;;;;;;5075561;28;20194;-61
2024/04/03 04:44:16;;;;;;;3.37;3.07;;;5.40;99.90;;;;;;5057966;28;20209;-59
2024/04/03 04:46:48;;;;;;;2.90;2.70;;;5.40;99.90;;;;;;5067724;28;20838;-62
2024/04/03 04:49:15;;;;;;;3.97;3.57;;;5.30;99.90;;;;;;5087529;28;20661;-57
2024/04/03 04:51:42;;;;;;;3.40;3.10;;;5.30;99.90;;;;;;5078758;28;20194;-61
2024/04/03 04:54:08;;;;;;;3.00;2.73;;;5.30;99.90;;;;;;5072575;28;20207;-58
2024/04/03 04:56:35;;;;;;;3.33;2.83;;;5.30;99.90;;;;;;5083458;28;20194;-59
2024/04/03 04:59:02;;;;;;;3.27;2.97;;;5.30;99.90;;;;;;5066672;28;20890;-60
2024/04/03 05:01:29;;;;;;;4.90;3.70;;;5.30;99.90;;;;;;5057291;28;20194;-60
2024/04/03 05:03:54;;;;;;;3.30;3.00;;;5.30;99.90;;;;;;5073545;28;20186;-59
2024/04/03 05:06:22;;;;;;;3.27;3.07;;;5.30;99.90;;;;;;5081042;28;20186;-60
2024/04/03 05:08:49;;;;;;;2.80;2.60;;;5.20;99.90;;;;;;5071897;28;20209;-60
2024/04/03 05:11:16;;;;;;;5.00;2.60;;;5.20;99.90;;;;;;5074593;28;20258;-59
2024/04/03 05:13:42;;;;;;;3.13;2.83;;;5.10;99.90;;;;;;5076075;28;20201;-61
2024/04/03 05:16:09;;;;;;;3.10;2.80;;;5.20;99.90;;;;;;5047231;28;20209;-62
2024/04/03 05:18:36;;;;;;;3.10;2.80;;;5.10;99.90;;;;;;5074919;28;20328;-61
2024/04/03 05:21:03;;;;;;;3.37;2.90;;;5.10;99.90;;;;;;5078907;28;20658;-60
2024/04/03 05:23:30;;;;;;;3.40;2.90;;;5.10;99.90;;;;;;5076066;28;20194;-61
2024/04/03 05:25:58;;;;;;;3.20;3.00;;;5.20;99.90;;;;;;5066416;28;20254;-60
2024/04/03 05:28:25;;;;;;;2.50;2.30;;;5.20;99.90;;;;;;5077285;28;20301;-61
2024/04/03 05:30:52;;;;;;;3.00;2.70;;;5.20;99.90;;;;;;5043982;28;20198;-61
2024/04/03 05:33:18;;;;;;;5.10;2.90;;;5.20;99.90;;;;;;5079418;28;20669;-61
2024/04/03 05:35:54;;;;;;;3.10;2.60;;;5.20;99.90;;;;;;5071862;28;20206;-61
2024/04/03 05:38:20;;;;;;;3.63;3.33;;;5.20;99.90;;;;;;5069425;28;20241;-56
2024/04/03 05:40:49;;;;;;;2.63;2.43;;;5.10;99.90;;;;;;5071635;28;20200;-58
2024/04/03 05:43:16;;;;;;;3.17;2.87;;;5.10;99.90;;;;;;5066412;28;20248;-54
2024/04/03 05:45:42;;;;;;;2.80;2.57;;;5.20;99.90;;;;;;5047207;28;20618;-60
2024/04/03 05:48:09;;;;;;;2.20;2.00;;;5.20;99.90;;;;;;5067387;28;20214;-59
2024/04/03 05:50:35;;;;;;;2.77;2.57;;;5.20;99.90;;;;;;5055281;28;20870;-58
2024/04/03 05:53:02;;;;;;;2.10;2.00;;;5.20;99.90;;;;;;5079827;28;20235;-62
2024/04/03 05:55:28;;;;;;;2.70;2.50;;;5.10;99.90;;;;;;5081192;28;20198;-56
2024/04/03 05:57:56;;;;;;;2.67;2.43;;;5.10;99.90;;;;;;5068277;28;20222;-60
2024/04/03 06:00:22;;;;;;;2.53;2.33;;;5.00;99.90;;;;;;5078936;28;20186;-57
2024/04/03 06:02:49;;;;;;;3.00;2.63;;;5.00;99.90;;;;;;5031673;28;20664;-54
2024/04/03 06:05:16;;;;;;;2.60;2.40;;;5.00;99.90;;;;;;5073194;28;20276;-56
2024/04/03 06:07:45;;;;;;;2.60;2.40;;;5.00;99.90;;;;;;5082132;28;20209;-56
2024/04/03 06:10:12;;;;;;;2.60;2.40;;;4.90;99.90;;;;;;5075331;28;20198;-58
2024/04/03 06:12:39;;;;;;;2.37;2.17;;;4.90;99.90;;;;;;5085518;28;20189;-55
2024/04/03 06:15:07;;;;;;;2.23;2.03;;;4.90;99.90;;;;;;5089166;28;20209;-58
2024/04/03 06:17:34;;;;;;;2.90;2.03;;;4.90;99.90;;;;;;5035833;28;20697;-57
2024/04/03 06:20:00;;;;;;;4.40;2.00;;;5.00;99.90;;;;;;5082987;28;20222;-58
2024/04/03 06:22:27;;;;;;;1.80;1.70;;;5.00;99.90;;;;;;5083721;28;20189;-57
2024/04/03 06:24:53;;;;;;;2.27;2.10;;;5.00;99.90;;;;;;5080732;28;20202;-59
2024/04/03 06:27:20;;;;;;;2.20;2.00;;;5.10;99.90;;;;;;5088454;28;20254;-57
2024/04/03 06:29:46;;;;;;;2.00;1.90;;;5.10;99.90;;;;;;5077233;28;20733;-57
2024/04/03 06:32:14;;;;;;;2.83;1.97;;;5.20;99.90;;;;;;5056073;28;20209;-59
2024/04/03 06:34:40;;;;;;;2.33;2.13;;;5.10;99.90;;;;;;5083017;28;20202;-57
2024/04/03 06:37:07;;;;;;;2.20;2.00;;;5.10;99.90;;;;;;5086276;28;20692;-58
2024/04/03 06:39:33;;;;;;;2.07;1.97;;;5.10;99.90;;;;;;5083316;28;20232;-57
2024/04/03 06:42:00;;;;;;;2.30;1.83;;;5.20;99.90;;;;;;5073701;28;20197;-59
2024/04/03 06:44:26;;;;;;;1.87;1.77;;;5.20;99.90;;;;;;5060436;28;20317;-57
2024/04/03 06:46:54;;;;;;;1.83;1.73;;;5.30;99.90;;;;;;5075179;28;20288;-57
2024/04/03 06:49:22;;;;;;;1.70;1.60;;;5.40;99.90;;;;;;5046931;28;20198;-58
2024/04/03 06:51:49;;;;;;;2.00;1.87;;;5.40;99.90;;;;;;5080969;28;20232;-56
2024/04/03 06:54:15;;;;;;;2.20;2.00;;;5.50;99.90;;;;;;5076942;28;20875;-56
2024/04/03 06:56:41;;;;;;;1.80;1.70;;;5.50;99.90;;;;;;5072146;28;20259;-59
2024/04/03 06:59:07;;;;;;;2.23;1.97;;;5.60;99.90;;;;;;5069678;28;20263;-59
2024/04/03 07:01:35;;;;;;;2.17;2.07;;;5.60;99.90;;;;;;5062305;28;20193;-58
2024/04/03 07:04:02;;;;;;;2.20;2.10;;;5.70;99.90;;;;;;5051138;28;20233;-58
2024/04/03 07:06:30;;;;;;;2.30;2.13;;;5.70;99.90;;;;;;5072402;28;20186;-57
2024/04/03 07:08:56;;;;;;;2.50;2.30;;;5.80;99.90;;;;;;5084071;28;20197;-58
2024/04/03 07:11:22;;;;;;;2.37;2.17;;;5.90;99.90;;;;;;5068473;28;20308;-57
2024/04/03 07:13:48;;;;;;;2.07;1.97;;;6.00;99.90;;;;;;5076548;28;20198;-57
2024/04/03 07:16:15;;;;;;;1.87;1.77;;;6.00;99.90;;;;;;5070704;28;20200;-56
2024/04/03 07:18:41;;;;;;;3.77;2.07;;;6.00;99.90;;;;;;5052030;28;20229;-59
2024/04/03 07:21:09;;;;;;;2.00;1.90;;;6.00;99.90;;;;;;5072953;28;20343;-59
2024/04/03 07:23:36;;;;;;;2.20;2.00;;;6.00;99.90;;;;;;5068489;28;20256;-58
2024/04/03 07:26:04;;;;;;;2.80;2.47;;;6.10;99.90;;;;;;5075063;28;20227;-56
2024/04/03 07:28:29;;;;;;;3.10;2.77;;;6.10;99.90;;;;;;5068564;28;20222;-58
2024/04/03 07:30:57;;;;;;;2.20;2.00;;;6.20;99.90;;;;;;5074085;28;20275;-57
2024/04/03 07:33:23;;;;;;;2.23;2.03;;;6.30;99.90;;;;;;5070096;28;20665;-60
2024/04/03 07:35:50;;;;;;;2.43;2.23;;;6.40;99.90;;;;;;5067247;28;20189;-54
2024/04/03 07:38:19;;;;;;;2.20;2.00;;;6.40;99.90;;;;;;5073732;28;20680;-57
2024/04/03 07:40:50;;;;;;;2.50;2.40;;;6.40;99.90;;;;;;5061008;28;20679;-58
2024/04/03 07:43:16;;;;;;;2.30;2.10;;;6.40;99.90;;;;;;5066176;28;20945;-59
2024/04/03 07:45:43;;;;;;;2.10;1.87;;;6.40;99.90;;;;;;5054169;28;20268;-59
2024/04/03 07:48:09;;;;;;;2.10;1.90;;;6.40;99.90;;;;;;5078652;28;20218;-57
2024/04/03 07:50:36;;;;;;;3.07;1.77;;;6.50;99.90;;;;;;5042845;28;20209;-59
2024/04/03 07:53:02;;;;;;;2.10;2.00;;;6.40;99.90;;;;;;5082280;28;20250;-57
2024/04/03 07:55:29;;;;;;;1.87;1.77;;;6.50;99.90;;;;;;5074196;28;20194;-59
2024/04/03 07:57:57;;;;;;;2.20;2.10;;;6.60;99.90;;;;;;5071287;28;20229;-56
2024/04/03 08:00:24;;;;;;;2.50;2.30;;;6.60;99.90;;;;;;5080020;28;20229;-58
2024/04/03 08:02:50;;;;;;;2.20;2.10;;;6.70;99.90;;;;;;5072959;28;20197;-55
2024/04/03 08:05:17;;;;;;;3.23;2.27;;;6.70;99.90;;;;;;5033363;28;20224;-58
2024/04/03 08:07:43;;;;;;;2.40;2.20;;;6.70;99.90;;;;;;5074214;28;20226;-59
2024/04/03 08:10:11;;;;;;;2.13;2.03;;;6.70;99.90;;;;;;5076408;28;20194;-58
2024/04/03 08:12:39;;;;;;;2.10;1.90;;;6.80;99.90;;;;;;5081931;28;20194;-59
2024/04/03 08:15:11;;;;;;;2.40;2.20;;;6.90;99.90;;;;;;5075605;28;20792;-58
2024/04/03 08:17:37;;;;;;;2.00;1.90;;;6.90;99.90;;;;;;5077383;28;20214;-58
2024/04/03 08:20:05;;;;;;;2.40;2.20;;;7.00;99.90;;;;;;5057080;28;20226;-57
2024/04/03 08:22:31;;;;;;;2.40;1.87;;;7.10;99.90;;;;;;5080736;28;20190;-60
2024/04/03 08:24:58;;;;;;;2.10;2.00;;;7.10;99.90;;;;;;5058990;28;21268;-62
2024/04/03 08:27:24;;;;;;;2.13;1.97;;;7.20;99.90;;;;;;5085346;28;20313;-58
2024/04/03 08:29:55;;;;;;;2.33;2.00;;;7.30;99.90;;;;;;5077785;28;20770;-58
2024/04/03 08:32:23;;;;;;;1.90;1.80;;;7.30;99.90;;;;;;5078054;28;20632;-58
2024/04/03 08:34:52;;;;;;;2.20;2.00;;;7.30;99.90;;;;;;5084663;28;20874;-58
2024/04/03 08:37:19;;;;;;;2.13;2.03;;;7.30;99.90;;;;;;5060618;28;20303;-60
2024/04/03 08:39:46;;;;;;;2.10;2.00;;;7.40;99.90;;;;;;5065028;28;20221;-59
2024/04/03 08:42:12;;;;;;;2.57;2.13;;;7.60;99.90;;;;;;5073089;28;20649;-57
2024/04/03 08:44:40;;;;;;;2.37;2.23;;;7.80;99.90;;;;;;5074382;28;20193;-59
2024/04/03 08:47:06;;;;;;;2.47;2.27;;;7.80;99.90;;;;;;5078908;28;20835;-58
2024/04/03 08:49:36;;;;;;;2.57;2.37;;;7.80;99.90;;;;;;5087654;28;20190;-58
2024/04/03 08:52:04;;;;;;;2.33;2.13;;;7.80;99.90;;;;;;5058158;28;20766;-57
2024/04/03 08:54:32;;;;;;;3.13;2.83;;;7.90;99.90;;;;;;5076484;28;20672;-60
2024/04/03 08:57:00;;;;;;;2.53;2.33;;;7.90;99.90;;;;;;5078964;28;20213;-56
2024/04/03 08:59:27;;;;;;;2.57;2.37;;;7.90;99.90;;;;;;5084953;28;20257;-59
2024/04/03 09:01:53;;;;;;;2.67;2.47;;;8.00;99.90;;;;;;5070300;28;20205;-57
2024/04/03 09:04:21;;;;;;;2.67;2.47;;;8.10;99.90;;;;;;5077068;28;20194;-58
2024/04/03 09:06:48;;;;;;;2.60;2.40;;;8.10;99.90;;;;;;5048160;28;20221;-60
2024/04/03 09:09:17;;;;;;;3.50;3.20;;;8.20;99.90;;;;;;5083884;28;20274;-57
2024/04/03 09:11:44;;;;;;;3.13;2.87;;;8.30;99.90;;;;;;5065747;28;20266;-59
2024/04/03 09:14:11;;;;;;;4.60;3.37;;;8.30;99.90;;;;;;5084336;28;20212;-56
2024/04/03 09:16:37;;;;;;;2.97;2.77;;;8.40;99.90;;;;;;5076017;28;20263;-60
2024/04/03 09:19:06;;;;;;;2.77;2.57;;;8.40;99.90;;;;;;5074652;28;20206;-58
2024/04/03 09:21:32;;;;;;;3.90;3.10;;;8.50;99.90;;;;;;5083080;28;20194;-59
2024/04/03 09:24:00;;;;;;;3.60;3.30;;;8.60;99.90;;;;;;5052338;28;20251;-57
2024/04/03 09:26:26;;;;;;;4.40;4.00;;;8.70;99.90;;;;;;5067770;28;20194;-57
2024/04/03 09:29:00;;;;;;;3.40;3.10;;;8.80;99.90;;;;;;5060255;28;20178;-57
2024/04/03 09:31:26;;;;;;;5.30;3.93;;;8.90;99.90;;;;;;5081505;28;20194;-58
2024/04/03 09:33:54;;;;;;;4.73;3.63;;;8.80;99.90;;;;;;5066296;28;20189;-58
2024/04/03 09:36:21;;;;;;;4.27;3.00;;;8.80;99.90;;;;;;5083713;28;20269;-54
2024/04/03 09:38:48;;;;;;;4.60;4.03;;;8.80;99.90;;;;;;5050347;28;20952;-59
2024/04/03 09:41:16;;;;;;;4.33;3.60;;;8.90;99.90;;;;;;5073201;28;20210;-57
2024/04/03 09:43:45;;;;;;;4.20;3.80;;;8.90;99.90;;;;;;5073972;28;20202;-59
2024/04/03 09:46:13;;;;;;;4.33;3.93;;;9.00;99.90;;;;;;5082201;28;20201;-57
2024/04/03 09:48:41;;;;;;;4.90;4.13;;;9.10;99.90;;;;;;5069897;28;20337;-60
2024/04/03 09:51:07;;;;;;;4.37;3.93;;;9.10;99.90;;;;;;5082247;28;20290;-53
2024/04/03 09:53:35;;;;;;;5.33;4.47;;;9.10;99.90;;;;;;5088113;28;20201;-58
2024/04/03 09:56:01;;;;;;;4.63;4.23;;;9.20;99.90;;;;;;5046720;28;20687;-56
2024/04/03 09:58:35;;;;;;;4.43;3.70;;;9.30;99.90;;;;;;5075550;28;20217;-58
2024/04/03 10:01:04;;;;;;;5.43;4.63;;;9.30;99.90;;;;;;5080397;28;20185;-57
2024/04/03 10:03:34;;;;;;;7.87;4.10;;;9.30;99.90;;;;;;5073576;28;20201;-58
2024/04/03 10:06:02;;;;;;;6.37;5.03;;;9.30;99.90;;;;;;5077401;28;20200;-57
2024/04/03 10:08:37;;;;;;;4.67;4.17;;;9.30;99.90;;;;;;5085014;28;20306;-59
2024/04/03 10:11:06;;;;;;;5.00;4.50;;;9.20;99.90;;;;;;5050044;28;20310;-57
2024/04/03 10:13:36;;;;;;;4.83;4.17;;;9.30;99.90;;;;;;5066569;28;20267;-59
2024/04/03 10:16:03;;;;;;;5.00;3.83;;;9.40;99.90;;;;;;5083405;28;20193;-57
2024/04/03 10:18:34;;;;;;;4.30;3.93;;;9.40;99.90;;;;;;5082416;28;20218;-59
2024/04/03 10:21:00;;;;;;;4.90;4.37;;;9.40;99.90;;;;;;5075692;28;20326;-59
2024/04/03 10:23:27;;;;;;;5.13;4.23;;;9.40;99.90;;;;;;5079172;28;20511;-59
2024/04/03 10:25:54;;;;;;;5.30;4.73;;;9.50;99.90;;;;;;5058609;28;22934;-60
2024/04/03 10:28:21;;;;;;;5.53;3.90;;;9.50;99.90;;;;;;5073219;28;20222;-58
2024/04/03 10:30:55;;;;;;;6.70;4.47;;;9.50;99.90;;;;;;5070310;28;20258;-56
2024/04/03 10:33:22;;;;;;;4.70;4.00;;;9.60;99.90;;;;;;5081257;28;20708;-59
2024/04/03 10:35:48;;;;;;;4.23;3.70;;;9.60;99.90;;;;;;5070909;28;20893;-57
2024/04/03 10:38:15;;;;;;;4.93;4.17;;;9.60;99.90;;;;;;5080008;28;20222;-59
2024/04/03 10:40:41;;;;;;;4.67;4.00;;;9.70;99.90;;;;;;5079855;28;20312;-58
2024/04/03 10:43:08;;;;;;;7.07;4.00;;;9.80;99.90;;;;;;5044331;28;20289;-56
2024/04/03 10:45:34;;;;;;;4.20;3.87;;;9.80;99.90;;;;;;5061490;28;21112;-59
2024/04/03 10:48:02;;;;;;;4.90;4.50;;;9.70;99.90;;;;;;5088616;28;20214;-56
2024/04/03 10:50:29;;;;;;;4.90;4.23;;;9.70;99.90;;;;;;5074177;28;20190;-59
2024/04/03 10:52:55;;;;;;;5.40;4.23;;;9.70;99.90;;;;;;5081573;28;20190;-59
2024/04/03 10:55:22;;;;;;;8.03;4.20;;;9.70;99.90;;;;;;5077680;28;20211;-59
2024/04/03 10:57:52;;;;;;;5.60;4.77;;;9.70;99.90;;;;;;5057686;28;20228;-58
2024/04/03 11:00:20;;;;;;;5.33;4.37;;;9.60;99.90;;;;;;5074197;28;20226;-59
2024/04/03 11:02:47;;;;;;;8.10;4.60;;;9.60;99.90;;;;;;5080347;28;20282;-58
2024/04/03 11:05:15;;;;;;;5.80;5.20;;;9.70;99.90;;;;;;5082944;28;20194;-58
2024/04/03 11:07:43;;;;;;;4.63;4.20;;;9.60;99.90;;;;;;5068975;28;20730;-57
2024/04/03 11:10:12;;;;;;;5.80;4.93;;;9.60;99.90;;;;;;5084902;28;20209;-56
2024/04/03 11:12:39;;;;;;;6.27;4.57;;;9.70;99.90;;;;;;5048222;28;20202;-57
2024/04/03 11:15:09;;;;;;;7.13;5.50;;;9.80;99.90;;;;;;5081814;28;20201;-54
2024/04/03 11:17:36;;;;;;;5.43;4.77;;;9.80;99.90;;;;;;5068881;28;20226;-56
2024/04/03 11:20:03;;;;;;;7.13;4.70;;;9.80;99.90;;;;;;5085978;28;20312;-57
2024/04/03 11:22:31;;;;;;;5.77;4.70;;;9.80;99.90;;;;;;5067446;28;20202;-59
2024/04/03 11:24:58;;;;;;;5.37;4.70;;;9.80;99.90;;;;;;5084112;28;20194;-55
2024/04/03 11:27:25;;;;;;;6.03;4.77;;;9.80;99.90;;;;;;5058309;28;20301;-60
2024/04/03 11:29:51;;;;;;;7.67;5.03;;;9.80;99.90;;;;;;5073336;28;20205;-55
2024/04/03 11:32:18;;;;;;;5.50;5.00;;;9.90;99.90;;;;;;5072250;28;20200;-60
2024/04/03 11:34:44;;;;;;;6.50;5.13;;;9.90;99.90;;;;;;5082899;28;20182;-56
2024/04/03 11:37:14;;;;;;;6.87;5.33;;;10.00;99.90;;;;;;5074739;28;20222;-58
2024/04/03 11:39:42;;;;;;;7.20;5.37;;;10.00;99.90;;;;;;5078394;28;20210;-56
2024/04/03 11:42:09;;;;;;;5.03;4.47;;;10.00;99.90;;;;;;5086348;28;20274;-57
2024/04/03 11:44:34;;;;;;;5.20;4.70;;;10.00;99.90;;;;;;5056203;28;20190;-56
2024/04/03 11:47:02;;;;;;;5.50;4.87;;;10.00;99.90;;;;;;5076634;28;20309;-56
2024/04/03 11:49:28;;;;;;;5.20;4.70;;;10.00;99.90;;;;;;5083748;28;20552;-59
2024/04/03 11:51:55;;;;;;;6.17;4.90;;;10.10;99.90;;;;;;5074635;28;20196;-58
2024/04/03 11:54:21;;;;;;;6.40;5.43;;;10.00;99.90;;;;;;5081094;28;20271;-58
2024/04/03 11:56:50;;;;;;;6.13;4.93;;;10.00;99.90;;;;;;5084157;28;20969;-57
2024/04/03 11:59:16;;;;;;;5.90;5.03;;;10.00;99.90;;;;;;5052316;28;20218;-59
2024/04/03 12:01:43;;;;;;;6.40;5.23;;;10.10;99.90;;;;;;5086874;28;20247;-58
2024/04/03 12:04:09;;;;;;;6.77;5.20;;;10.10;99.90;;;;;;5074771;28;20198;-54
2024/04/03 12:06:36;;;;;;;5.47;4.77;;;10.10;99.90;;;;;;5081953;28;20239;-58
2024/04/03 12:09:02;;;;;;;5.90;5.17;;;10.00;99.90;;;;;;5073742;28;20721;-57
2024/04/03 12:11:29;;;;;;;5.77;5.00;;;9.90;99.90;;;;;;5083001;28;20715;-59
2024/04/03 12:13:56;;;;;;;6.63;5.20;;;9.90;99.90;;;;;;5052383;28;20206;-58
2024/04/03 12:16:27;;;;;;;7.07;5.40;;;10.00;99.90;;;;;;5083423;28;20198;-59
2024/04/03 12:19:12;;;;;;;5.47;4.97;;;10.00;99.90;;;;;;5078997;28;20253;-57
2024/04/03 12:21:39;;;;;;;6.13;5.13;;;9.90;99.90;;;;;;5073085;28;20273;-57
2024/04/03 12:24:05;;;;;;;7.23;6.00;;;9.90;99.90;;;;;;5074426;28;21206;-59
2024/04/03 12:26:32;;;;;;;6.27;5.40;;;9.90;99.90;;;;;;5074951;28;20755;-57
2024/04/03 12:29:00;;;;;;;6.23;5.60;;;10.00;99.90;;;;;;5089513;28;20193;-57
2024/04/03 12:31:27;;;;;;;6.23;5.07;;;10.00;99.90;;;;;;5054034;28;20563;-58
2024/04/03 12:33:53;;;;;;;6.07;5.43;;;9.90;99.90;;;;;;5076846;28;20202;-57
2024/04/03 12:36:20;;;;;;;6.53;5.40;;;10.00;99.90;;;;;;5088311;28;20194;-61
2024/04/03 12:38:47;;;;;;;5.93;5.33;;;10.00;99.90;;;;;;5077738;28;20295;-58
2024/04/03 12:41:14;;;;;;;7.07;5.53;;;10.00;99.90;;;;;;5084948;28;20194;-58
2024/04/03 12:43:42;;;;;;;6.10;5.40;;;10.00;99.90;;;;;;5083036;28;20562;-59
2024/04/03 12:46:13;;;;;;;5.87;5.30;;;10.00;99.90;;;;;;5051560;28;20209;-56
2024/04/03 12:48:38;;;;;;;5.40;4.87;;;10.00;99.90;;;;;;5078944;28;20851;-56
2024/04/03 12:51:06;;;;;;;6.57;5.57;;;10.00;99.90;;;;;;5076098;28;20202;-56
2024/04/03 12:53:32;;;;;;;7.57;5.70;;;10.10;99.90;;;;;;5065734;28;20195;-57
2024/04/03 12:56:00;;;;;;;5.87;5.17;;;10.10;99.90;;;;;;5086323;28;20202;-52
2024/04/03 12:58:26;;;;;;;6.33;4.90;;;10.10;99.90;;;;;;5082498;28;20306;-58